sensor_id;sensor_type;location;lat;lon;timestamp;P1;durP1;ratioP1;P2;durP2;ratioP2
18188;SDS011;9219;50.396;8.546;2023-04-08T12:03:22;11.43;;;7.87;;
18188;SDS011;9219;50.396;8.546;2023-04-08T12:05:50;10.50;;;7.10;;
18188;SDS011;9219;50.396;8.546;2023-04-08T12:08:17;12.47;;;7.47;;
18188;SDS011;9219;50.396;8.546;2023-04-08T12:10:44;10.13;;;7.40;;
18188;SDS011;9219;50.396;8.546;2023-04-08T12:18:16;12.43;;;8.63;;
18188;SDS011;9219;50.396;8.546;2023-04-08T12:20:44;13.60;;;7.70;;
18188;SDS011;9219;50.396;8.546;2023-04-08T12:23:11;11.37;;;7.23;;
18188;SDS011;9219;50.396;8.546;2023-04-08T12:25:38;12.07;;;8.03;;
18188;SDS011;9219;50.396;8.546;2023-04-08T12:28:06;13.63;;;8.07;;
18188;SDS011;9219;50.396;8.546;2023-04-08T12:30:34;11.13;;;7.43;;
18188;SDS011;9219;50.396;8.546;2023-04-08T12:33:02;12.37;;;8.23;;
18188;SDS011;9219;50.396;8.546;2023-04-08T12:40:34;12.63;;;8.43;;
18188;SDS011;9219;50.396;8.546;2023-04-08T12:43:02;13.27;;;8.13;;
18188;SDS011;9219;50.396;8.546;2023-04-08T12:45:29;11.53;;;7.87;;
18188;SDS011;9219;50.396;8.546;2023-04-08T12:47:57;13.43;;;7.90;;
18188;SDS011;9219;50.396;8.546;2023-04-08T12:50:24;14.37;;;8.17;;
18188;SDS011;9219;50.396;8.546;2023-04-08T12:52:52;13.23;;;9.00;;
18188;SDS011;9219;50.396;8.546;2023-04-08T12:55:19;12.50;;;7.87;;
18188;SDS011;9219;50.396;8.546;2023-04-08T13:03:39;13.63;;;8.10;;
18188;SDS011;9219;50.396;8.546;2023-04-08T13:06:10;10.30;;;8.37;;
18188;SDS011;9219;50.396;8.546;2023-04-08T13:08:37;11.50;;;7.83;;
18188;SDS011;9219;50.396;8.546;2023-04-08T13:11:04;12.80;;;8.90;;
18188;SDS011;9219;50.396;8.546;2023-04-08T13:13:33;14.47;;;8.63;;
18188;SDS011;9219;50.396;8.546;2023-04-08T13:16:01;15.37;;;10.23;;
18188;SDS011;9219;50.396;8.546;2023-04-08T13:26:29;15.53;;;10.50;;
18188;SDS011;9219;50.396;8.546;2023-04-08T13:28:56;15.63;;;9.70;;
18188;SDS011;9219;50.396;8.546;2023-04-08T13:31:24;14.93;;;10.20;;
18188;SDS011;9219;50.396;8.546;2023-04-08T13:33:51;14.53;;;10.00;;
18188;SDS011;9219;50.396;8.546;2023-04-08T13:36:23;13.23;;;9.50;;
18188;SDS011;9219;50.396;8.546;2023-04-08T13:38:51;16.03;;;11.33;;
18188;SDS011;9219;50.396;8.546;2023-04-08T13:49:24;15.80;;;10.83;;
18188;SDS011;9219;50.396;8.546;2023-04-08T13:51:52;14.27;;;9.07;;
18188;SDS011;9219;50.396;8.546;2023-04-08T13:54:19;13.57;;;9.30;;
18188;SDS011;9219;50.396;8.546;2023-04-08T13:56:47;14.70;;;9.23;;
18188;SDS011;9219;50.396;8.546;2023-04-08T13:59:15;12.17;;;9.00;;
18188;SDS011;9219;50.396;8.546;2023-04-08T14:01:42;14.13;;;9.60;;
18188;SDS011;9219;50.396;8.546;2023-04-08T14:09:13;13.00;;;9.13;;
18188;SDS011;9219;50.396;8.546;2023-04-08T14:11:41;18.67;;;9.97;;
18188;SDS011;9219;50.396;8.546;2023-04-08T14:14:09;15.33;;;10.87;;
18188;SDS011;9219;50.396;8.546;2023-04-08T14:16:36;14.17;;;10.00;;
18188;SDS011;9219;50.396;8.546;2023-04-08T14:19:03;11.57;;;8.93;;
18188;SDS011;9219;50.396;8.546;2023-04-08T14:21:31;15.33;;;10.00;;
18188;SDS011;9219;50.396;8.546;2023-04-08T14:23:58;15.13;;;10.00;;
18188;SDS011;9219;50.396;8.546;2023-04-08T14:31:28;15.77;;;9.13;;
18188;SDS011;9219;50.396;8.546;2023-04-08T14:33:56;14.00;;;9.73;;
18188;SDS011;9219;50.396;8.546;2023-04-08T14:36:23;16.27;;;10.87;;
18188;SDS011;9219;50.396;8.546;2023-04-08T14:38:51;18.70;;;10.47;;
18188;SDS011;9219;50.396;8.546;2023-04-08T14:41:19;16.23;;;11.03;;
18188;SDS011;9219;50.396;8.546;2023-04-08T14:43:46;18.37;;;10.93;;
18188;SDS011;9219;50.396;8.546;2023-04-08T14:46:14;16.47;;;11.53;;
18188;SDS011;9219;50.396;8.546;2023-04-08T14:56:40;18.93;;;12.13;;
18188;SDS011;9219;50.396;8.546;2023-04-08T14:59:08;16.20;;;10.07;;
18188;SDS011;9219;50.396;8.546;2023-04-08T15:01:36;14.70;;;10.00;;
18188;SDS011;9219;50.396;8.546;2023-04-08T15:04:03;12.10;;;8.87;;
18188;SDS011;9219;50.396;8.546;2023-04-08T15:06:31;16.43;;;11.00;;
18188;SDS011;9219;50.396;8.546;2023-04-08T15:08:59;16.17;;;10.77;;
18188;SDS011;9219;50.396;8.546;2023-04-08T15:11:26;15.30;;;10.70;;
18188;SDS011;9219;50.396;8.546;2023-04-08T15:13:55;18.57;;;11.83;;
18188;SDS011;9219;50.396;8.546;2023-04-08T15:16:36;19.17;;;10.73;;
18188;SDS011;9219;50.396;8.546;2023-04-08T15:19:03;15.67;;;10.07;;
18188;SDS011;9219;50.396;8.546;2023-04-08T15:21:30;18.73;;;10.37;;
18188;SDS011;9219;50.396;8.546;2023-04-08T15:23:57;20.27;;;10.83;;
18188;SDS011;9219;50.396;8.546;2023-04-08T15:26:25;15.10;;;10.47;;
18188;SDS011;9219;50.396;8.546;2023-04-08T15:28:52;15.13;;;10.03;;
18188;SDS011;9219;50.396;8.546;2023-04-08T15:31:22;14.87;;;9.73;;
18188;SDS011;9219;50.396;8.546;2023-04-08T15:38:54;14.13;;;9.53;;
18188;SDS011;9219;50.396;8.546;2023-04-08T15:41:21;16.73;;;9.67;;
18188;SDS011;9219;50.396;8.546;2023-04-08T15:43:48;14.57;;;9.80;;
18188;SDS011;9219;50.396;8.546;2023-04-08T15:46:17;14.97;;;9.53;;
18188;SDS011;9219;50.396;8.546;2023-04-08T15:48:45;14.37;;;9.70;;
18188;SDS011;9219;50.396;8.546;2023-04-08T15:51:13;15.30;;;9.87;;
18188;SDS011;9219;50.396;8.546;2023-04-08T15:53:41;16.43;;;10.00;;
18188;SDS011;9219;50.396;8.546;2023-04-08T15:58:51;18.67;;;10.07;;
18188;SDS011;9219;50.396;8.546;2023-04-08T16:01:19;17.70;;;11.30;;
18188;SDS011;9219;50.396;8.546;2023-04-08T16:03:46;16.63;;;10.23;;
18188;SDS011;9219;50.396;8.546;2023-04-08T16:06:14;17.90;;;11.20;;
18188;SDS011;9219;50.396;8.546;2023-04-08T16:08:41;16.47;;;10.10;;
18188;SDS011;9219;50.396;8.546;2023-04-08T16:11:09;16.57;;;10.47;;
18188;SDS011;9219;50.396;8.546;2023-04-08T16:13:37;15.53;;;10.20;;
18188;SDS011;9219;50.396;8.546;2023-04-08T16:21:41;13.23;;;9.20;;
18188;SDS011;9219;50.396;8.546;2023-04-08T16:24:09;16.67;;;9.47;;
18188;SDS011;9219;50.396;8.546;2023-04-08T16:26:36;13.10;;;9.00;;
18188;SDS011;9219;50.396;8.546;2023-04-08T16:29:03;15.17;;;10.13;;
18188;SDS011;9219;50.396;8.546;2023-04-08T16:31:32;16.13;;;8.80;;
18188;SDS011;9219;50.396;8.546;2023-04-08T16:33:59;14.77;;;9.00;;
18188;SDS011;9219;50.396;8.546;2023-04-08T16:36:26;15.73;;;10.30;;
18188;SDS011;9219;50.396;8.546;2023-04-08T16:42:09;13.60;;;9.77;;
18188;SDS011;9219;50.396;8.546;2023-04-08T16:44:37;14.53;;;9.57;;
18188;SDS011;9219;50.396;8.546;2023-04-08T16:47:04;16.50;;;9.20;;
18188;SDS011;9219;50.396;8.546;2023-04-08T16:49:32;13.57;;;8.87;;
18188;SDS011;9219;50.396;8.546;2023-04-08T16:52:00;17.60;;;9.10;;
18188;SDS011;9219;50.396;8.546;2023-04-08T16:54:27;13.40;;;8.90;;
18188;SDS011;9219;50.396;8.546;2023-04-08T16:56:55;14.23;;;8.70;;
18188;SDS011;9219;50.396;8.546;2023-04-08T17:04:22;15.37;;;8.50;;
18188;SDS011;9219;50.396;8.546;2023-04-08T17:06:49;11.50;;;7.93;;
18188;SDS011;9219;50.396;8.546;2023-04-08T17:09:17;12.57;;;8.53;;
18188;SDS011;9219;50.396;8.546;2023-04-08T17:11:44;16.03;;;8.10;;
18188;SDS011;9219;50.396;8.546;2023-04-08T17:14:12;13.07;;;8.80;;
18188;SDS011;9219;50.396;8.546;2023-04-08T17:16:39;14.10;;;9.07;;
18188;SDS011;9219;50.396;8.546;2023-04-08T17:19:06;15.50;;;9.63;;
18188;SDS011;9219;50.396;8.546;2023-04-08T17:27:09;12.17;;;8.80;;
18188;SDS011;9219;50.396;8.546;2023-04-08T17:29:37;12.57;;;7.80;;
18188;SDS011;9219;50.396;8.546;2023-04-08T17:32:04;11.33;;;7.70;;
18188;SDS011;9219;50.396;8.546;2023-04-08T17:34:32;12.43;;;7.10;;
18188;SDS011;9219;50.396;8.546;2023-04-08T17:36:59;12.13;;;8.13;;
18188;SDS011;9219;50.396;8.546;2023-04-08T17:39:27;13.80;;;8.60;;
18188;SDS011;9219;50.396;8.546;2023-04-08T17:41:56;13.87;;;7.73;;
18188;SDS011;9219;50.396;8.546;2023-04-08T17:49:28;10.70;;;7.37;;
18188;SDS011;9219;50.396;8.546;2023-04-08T17:51:56;9.70;;;6.80;;
18188;SDS011;9219;50.396;8.546;2023-04-08T17:54:23;12.90;;;7.73;;
18188;SDS011;9219;50.396;8.546;2023-04-08T17:56:51;10.37;;;7.00;;
18188;SDS011;9219;50.396;8.546;2023-04-08T17:59:18;9.83;;;6.87;;
18188;SDS011;9219;50.396;8.546;2023-04-08T18:01:45;9.43;;;6.57;;
18188;SDS011;9219;50.396;8.546;2023-04-08T18:04:12;16.23;;;7.10;;
18188;SDS011;9219;50.396;8.546;2023-04-08T18:11:45;10.07;;;7.03;;
18188;SDS011;9219;50.396;8.546;2023-04-08T18:14:13;10.60;;;7.00;;
18188;SDS011;9219;50.396;8.546;2023-04-08T18:16:41;9.63;;;6.10;;
18188;SDS011;9219;50.396;8.546;2023-04-08T18:19:08;10.47;;;6.43;;
18188;SDS011;9219;50.396;8.546;2023-04-08T18:21:39;8.47;;;6.17;;
18188;SDS011;9219;50.396;8.546;2023-04-08T18:24:06;7.97;;;5.60;;
18188;SDS011;9219;50.396;8.546;2023-04-08T18:26:34;8.13;;;6.03;;
18188;SDS011;9219;50.396;8.546;2023-04-08T18:32:13;7.33;;;4.87;;
18188;SDS011;9219;50.396;8.546;2023-04-08T18:34:40;7.10;;;4.70;;
18188;SDS011;9219;50.396;8.546;2023-04-08T18:37:08;8.13;;;5.20;;
18188;SDS011;9219;50.396;8.546;2023-04-08T18:39:38;6.70;;;5.10;;
18188;SDS011;9219;50.396;8.546;2023-04-08T18:42:06;6.90;;;4.73;;
18188;SDS011;9219;50.396;8.546;2023-04-08T18:44:33;9.30;;;5.17;;
18188;SDS011;9219;50.396;8.546;2023-04-08T18:47:01;8.40;;;5.17;;
18188;SDS011;9219;50.396;8.546;2023-04-08T18:55:19;7.03;;;4.90;;
18188;SDS011;9219;50.396;8.546;2023-04-08T18:57:47;7.63;;;4.80;;
18188;SDS011;9219;50.396;8.546;2023-04-08T19:00:17;7.63;;;5.30;;
18188;SDS011;9219;50.396;8.546;2023-04-08T19:02:45;7.63;;;4.60;;
18188;SDS011;9219;50.396;8.546;2023-04-08T19:05:12;8.07;;;4.77;;
18188;SDS011;9219;50.396;8.546;2023-04-08T19:07:40;7.93;;;4.93;;
18188;SDS011;9219;50.396;8.546;2023-04-08T19:10:07;7.43;;;4.77;;
18188;SDS011;9219;50.396;8.546;2023-04-08T19:17:40;6.60;;;4.50;;
18188;SDS011;9219;50.396;8.546;2023-04-08T19:20:08;7.83;;;5.10;;
18188;SDS011;9219;50.396;8.546;2023-04-08T19:22:36;7.30;;;5.10;;
18188;SDS011;9219;50.396;8.546;2023-04-08T19:25:05;6.80;;;4.30;;
18188;SDS011;9219;50.396;8.546;2023-04-08T19:27:33;9.03;;;5.40;;
18188;SDS011;9219;50.396;8.546;2023-04-08T19:30:00;8.30;;;5.00;;
18188;SDS011;9219;50.396;8.546;2023-04-08T19:32:28;8.43;;;5.03;;
18188;SDS011;9219;50.396;8.546;2023-04-08T19:40:42;7.17;;;4.43;;
18188;SDS011;9219;50.396;8.546;2023-04-08T19:43:13;7.53;;;4.93;;
18188;SDS011;9219;50.396;8.546;2023-04-08T19:45:41;9.33;;;5.47;;
18188;SDS011;9219;50.396;8.546;2023-04-08T19:48:09;6.87;;;4.57;;
18188;SDS011;9219;50.396;8.546;2023-04-08T19:50:38;7.20;;;4.33;;
18188;SDS011;9219;50.396;8.546;2023-04-08T19:53:06;7.17;;;4.67;;
18188;SDS011;9219;50.396;8.546;2023-04-08T19:55:34;6.77;;;4.33;;
18188;SDS011;9219;50.396;8.546;2023-04-08T19:58:04;7.40;;;4.90;;
18188;SDS011;9219;50.396;8.546;2023-04-08T20:03:39;8.67;;;5.47;;
18188;SDS011;9219;50.396;8.546;2023-04-08T20:06:10;7.97;;;5.30;;
18188;SDS011;9219;50.396;8.546;2023-04-08T20:08:38;8.67;;;5.50;;
18188;SDS011;9219;50.396;8.546;2023-04-08T20:11:06;8.20;;;5.57;;
18188;SDS011;9219;50.396;8.546;2023-04-08T20:13:33;7.93;;;4.93;;
18188;SDS011;9219;50.396;8.546;2023-04-08T20:16:01;9.17;;;5.47;;
18188;SDS011;9219;50.396;8.546;2023-04-08T20:18:29;8.40;;;5.27;;
18188;SDS011;9219;50.396;8.546;2023-04-08T20:23:53;7.00;;;4.70;;
18188;SDS011;9219;50.396;8.546;2023-04-08T20:26:22;6.23;;;4.67;;
18188;SDS011;9219;50.396;8.546;2023-04-08T20:28:49;7.80;;;4.23;;
18188;SDS011;9219;50.396;8.546;2023-04-08T20:31:17;7.03;;;4.43;;
18188;SDS011;9219;50.396;8.546;2023-04-08T20:33:44;11.07;;;5.43;;
18188;SDS011;9219;50.396;8.546;2023-04-08T20:36:12;7.57;;;4.67;;
18188;SDS011;9219;50.396;8.546;2023-04-08T20:38:39;6.73;;;4.40;;
18188;SDS011;9219;50.396;8.546;2023-04-08T20:46:38;5.67;;;3.77;;
18188;SDS011;9219;50.396;8.546;2023-04-08T20:49:05;8.20;;;5.00;;
18188;SDS011;9219;50.396;8.546;2023-04-08T20:51:33;8.60;;;5.43;;
18188;SDS011;9219;50.396;8.546;2023-04-08T20:54:00;6.83;;;4.17;;
18188;SDS011;9219;50.396;8.546;2023-04-08T20:56:28;6.87;;;4.60;;
18188;SDS011;9219;50.396;8.546;2023-04-08T20:58:55;8.60;;;5.13;;
18188;SDS011;9219;50.396;8.546;2023-04-08T21:01:25;7.37;;;4.20;;
18188;SDS011;9219;50.396;8.546;2023-04-08T21:08:58;7.37;;;4.77;;
18188;SDS011;9219;50.396;8.546;2023-04-08T21:11:25;6.77;;;4.43;;
18188;SDS011;9219;50.396;8.546;2023-04-08T21:13:53;8.77;;;3.77;;
18188;SDS011;9219;50.396;8.546;2023-04-08T21:16:21;8.77;;;4.33;;
18188;SDS011;9219;50.396;8.546;2023-04-08T21:18:48;7.37;;;4.90;;
18188;SDS011;9219;50.396;8.546;2023-04-08T21:21:17;8.37;;;5.03;;
18188;SDS011;9219;50.396;8.546;2023-04-08T21:23:44;7.07;;;4.47;;
18188;SDS011;9219;50.396;8.546;2023-04-08T21:28:50;8.40;;;5.40;;
18188;SDS011;9219;50.396;8.546;2023-04-08T21:31:18;8.23;;;5.13;;
18188;SDS011;9219;50.396;8.546;2023-04-08T21:33:45;7.60;;;4.70;;
18188;SDS011;9219;50.396;8.546;2023-04-08T21:36:13;7.87;;;4.70;;
18188;SDS011;9219;50.396;8.546;2023-04-08T21:38:41;7.50;;;4.57;;
18188;SDS011;9219;50.396;8.546;2023-04-08T21:41:08;7.60;;;4.93;;
18188;SDS011;9219;50.396;8.546;2023-04-08T21:43:36;8.77;;;4.60;;
18188;SDS011;9219;50.396;8.546;2023-04-08T21:49:19;9.03;;;5.43;;
18188;SDS011;9219;50.396;8.546;2023-04-08T21:51:47;7.87;;;5.70;;
18188;SDS011;9219;50.396;8.546;2023-04-08T21:54:16;9.83;;;5.63;;
18188;SDS011;9219;50.396;8.546;2023-04-08T21:56:43;12.83;;;6.90;;
18188;SDS011;9219;50.396;8.546;2023-04-08T21:59:10;10.30;;;6.50;;
18188;SDS011;9219;50.396;8.546;2023-04-08T22:01:41;9.50;;;5.60;;
18188;SDS011;9219;50.396;8.546;2023-04-08T22:04:09;10.80;;;6.43;;
18188;SDS011;9219;50.396;8.546;2023-04-08T22:11:41;11.33;;;6.30;;
18188;SDS011;9219;50.396;8.546;2023-04-08T22:14:09;9.20;;;6.27;;
18188;SDS011;9219;50.396;8.546;2023-04-08T22:16:36;10.03;;;5.67;;
18188;SDS011;9219;50.396;8.546;2023-04-08T22:19:04;8.37;;;5.50;;
18188;SDS011;9219;50.396;8.546;2023-04-08T22:21:32;11.00;;;6.47;;
18188;SDS011;9219;50.396;8.546;2023-04-08T22:23:59;12.13;;;6.93;;
18188;SDS011;9219;50.396;8.546;2023-04-08T22:26:27;12.20;;;6.40;;
18188;SDS011;9219;50.396;8.546;2023-04-08T22:32:09;12.20;;;6.53;;
18188;SDS011;9219;50.396;8.546;2023-04-08T22:34:36;10.70;;;6.07;;
18188;SDS011;9219;50.396;8.546;2023-04-08T22:37:04;10.97;;;5.97;;
18188;SDS011;9219;50.396;8.546;2023-04-08T22:39:31;10.50;;;6.53;;
18188;SDS011;9219;50.396;8.546;2023-04-08T22:41:58;10.50;;;6.50;;
18188;SDS011;9219;50.396;8.546;2023-04-08T22:44:26;11.43;;;5.97;;
18188;SDS011;9219;50.396;8.546;2023-04-08T22:46:53;11.10;;;6.87;;
18188;SDS011;9219;50.396;8.546;2023-04-08T22:55:12;10.00;;;5.87;;
18188;SDS011;9219;50.396;8.546;2023-04-08T22:57:40;12.47;;;7.57;;
18188;SDS011;9219;50.396;8.546;2023-04-08T23:00:07;12.27;;;6.97;;
18188;SDS011;9219;50.396;8.546;2023-04-08T23:02:36;11.30;;;6.33;;
18188;SDS011;9219;50.396;8.546;2023-04-08T23:05:04;16.00;;;6.93;;
18188;SDS011;9219;50.396;8.546;2023-04-08T23:07:32;10.70;;;6.83;;
18188;SDS011;9219;50.396;8.546;2023-04-08T23:10:00;11.50;;;6.57;;
18188;SDS011;9219;50.396;8.546;2023-04-08T23:15:26;8.77;;;5.57;;
18188;SDS011;9219;50.396;8.546;2023-04-08T23:17:53;15.40;;;7.23;;
18188;SDS011;9219;50.396;8.546;2023-04-08T23:20:24;10.20;;;6.67;;
18188;SDS011;9219;50.396;8.546;2023-04-08T23:22:51;11.27;;;5.83;;
18188;SDS011;9219;50.396;8.546;2023-04-08T23:25:18;11.10;;;6.07;;
18188;SDS011;9219;50.396;8.546;2023-04-08T23:27:48;11.20;;;6.47;;
18188;SDS011;9219;50.396;8.546;2023-04-08T23:30:15;12.67;;;6.93;;
18188;SDS011;9219;50.396;8.546;2023-04-08T23:37:39;9.17;;;5.67;;
18188;SDS011;9219;50.396;8.546;2023-04-08T23:40:07;16.47;;;7.83;;
18188;SDS011;9219;50.396;8.546;2023-04-08T23:42:34;15.13;;;7.73;;
18188;SDS011;9219;50.396;8.546;2023-04-08T23:45:02;10.77;;;6.23;;
18188;SDS011;9219;50.396;8.546;2023-04-08T23:47:30;11.97;;;6.80;;
18188;SDS011;9219;50.396;8.546;2023-04-08T23:49:58;11.13;;;7.40;;
18188;SDS011;9219;50.396;8.546;2023-04-08T23:52:25;11.37;;;6.57;;
18188;SDS011;9219;50.396;8.546;2023-04-08T23:57:49;10.43;;;6.43;;
